createdAt,value
2023-01-29T00:02:05.956Z,100153.11
2023-01-29T00:04:34.211Z,100152.87
2023-01-29T00:07:01.957Z,100155.61
2023-01-29T00:09:29.727Z,100159.64
2023-01-29T00:11:57.381Z,100165.17
2023-01-29T00:14:26.684Z,100163.39
2023-01-29T00:16:54.908Z,100162.52
2023-01-29T00:19:22.723Z,100165.83
2023-01-29T00:21:50.385Z,100163.73
2023-01-29T00:24:18.177Z,100160.99
2023-01-29T00:26:46.017Z,100159.50
2023-01-29T00:29:14.088Z,100156.73
2023-01-29T00:31:42.095Z,100157.59
2023-01-29T00:34:09.919Z,100158.94
2023-01-29T00:36:37.581Z,100162.64
2023-01-29T00:39:10.974Z,100161.40
2023-01-29T00:41:57.482Z,100162.84
2023-01-29T00:44:43.886Z,100157.52
2023-01-29T00:47:30.760Z,100163.87
2023-01-29T00:49:58.562Z,100167.06
2023-01-29T00:52:26.371Z,100166.70
2023-01-29T00:54:54.188Z,100172.38
2023-01-29T00:57:21.951Z,100173.13
2023-01-29T00:59:49.715Z,100172.91
2023-01-29T01:02:36.117Z,100179.11
2023-01-29T01:05:03.983Z,100182.39
2023-01-29T01:07:31.645Z,100176.80
2023-01-29T01:10:18.552Z,100177.04
2023-01-29T01:12:46.427Z,100170.57
2023-01-29T01:15:14.195Z,100175.25
2023-01-29T01:17:41.951Z,100174.98
2023-01-29T01:20:09.820Z,100175.39
2023-01-29T01:22:37.479Z,100176.67
2023-01-29T01:25:05.140Z,100176.59
2023-01-29T01:27:32.903Z,100177.93
2023-01-29T01:30:00.665Z,100184.47
2023-01-29T01:32:28.336Z,100185.95
2023-01-29T01:34:56.095Z,100189.71
2023-01-29T01:37:23.754Z,100190.95
2023-01-29T01:39:51.416Z,100189.14
2023-01-29T01:42:19.079Z,100188.44
2023-01-29T01:44:46.739Z,100188.26
2023-01-29T01:47:15.732Z,100186.73
2023-01-29T01:49:43.395Z,100181.46
2023-01-29T01:52:11.158Z,100185.83
2023-01-29T01:54:38.790Z,100183.64
2023-01-29T01:57:09.564Z,100183.33
2023-01-29T01:59:37.318Z,100176.34
2023-01-29T02:02:24.048Z,100176.34
2023-01-29T02:05:10.785Z,100182.38
2023-01-29T02:07:57.439Z,100177.52
2023-01-29T02:10:25.408Z,100170.13
2023-01-29T02:12:53.177Z,100168.02
2023-01-29T02:15:20.940Z,100163.45
2023-01-29T02:17:48.747Z,100162.30
2023-01-29T02:20:16.657Z,100154.47
2023-01-29T02:22:44.533Z,100156.69
2023-01-29T02:25:12.400Z,100152.87
2023-01-29T02:27:40.167Z,100146.16
2023-01-29T02:30:07.934Z,100144.33
2023-01-29T02:32:35.901Z,100144.42
2023-01-29T02:35:22.301Z,100143.76
2023-01-29T02:37:49.960Z,100143.66
2023-01-29T02:40:17.869Z,100142.92
2023-01-29T02:42:45.898Z,100144.66
2023-01-29T02:45:13.562Z,100149.90
2023-01-29T02:47:41.322Z,100145.92
2023-01-29T02:50:09.090Z,100143.89
2023-01-29T02:52:36.850Z,100143.62
2023-01-29T02:55:05.024Z,100149.91
2023-01-29T02:57:32.794Z,100156.65
2023-01-29T03:00:00.452Z,100154.09
2023-01-29T03:02:28.230Z,100156.37
2023-01-29T03:04:55.978Z,100158.83
2023-01-29T03:07:43.093Z,100158.23
2023-01-29T03:10:10.859Z,100157.36
2023-01-29T03:12:38.520Z,100154.40
2023-01-29T03:15:12.440Z,100160.88
2023-01-29T03:17:40.193Z,100166.42
2023-01-29T03:20:08.366Z,100166.37
2023-01-29T03:22:36.024Z,100162.45
2023-01-29T03:25:22.631Z,100161.58
2023-01-29T03:28:09.337Z,100162.60
2023-01-29T03:30:55.791Z,100163.02
2023-01-29T03:33:23.505Z,100168.95
2023-01-29T03:35:52.194Z,100169.60
2023-01-29T03:38:19.956Z,100168.20
2023-01-29T03:40:47.624Z,100168.36
2023-01-29T03:43:15.378Z,100172.70
2023-01-29T03:45:43.207Z,100171.17
2023-01-29T03:48:11.111Z,100167.78
2023-01-29T03:50:38.975Z,100166.52
2023-01-29T03:53:06.749Z,100164.02
2023-01-29T03:55:34.509Z,100159.06
2023-01-29T03:58:02.269Z,100153.44
2023-01-29T04:00:29.934Z,100149.55
2023-01-29T04:02:57.695Z,100153.54
2023-01-29T04:05:25.567Z,100160.48
2023-01-29T04:07:53.323Z,100159.74
2023-01-29T04:10:21.089Z,100157.80
2023-01-29T04:12:48.865Z,100157.94
2023-01-29T04:15:16.723Z,100155.42
2023-01-29T04:17:44.481Z,100152.73
2023-01-29T04:20:12.246Z,100151.84
2023-01-29T04:22:39.914Z,100144.79
2023-01-29T04:25:08.798Z,100144.95
2023-01-29T04:27:36.561Z,100142.55
2023-01-29T04:30:04.329Z,100140.08
2023-01-29T04:32:32.101Z,100139.33
2023-01-29T04:34:59.854Z,100139.45
2023-01-29T04:37:27.623Z,100134.88
2023-01-29T04:39:55.486Z,100130.18
2023-01-29T04:42:23.249Z,100129.74
2023-01-29T04:44:50.905Z,100126.95
2023-01-29T04:47:18.819Z,100127.04
2023-01-29T04:49:46.539Z,100121.45
2023-01-29T04:52:14.199Z,100119.12
2023-01-29T04:54:41.861Z,100120.42
2023-01-29T04:57:09.933Z,100106.23
2023-01-29T04:59:37.697Z,100101.42
2023-01-29T05:02:05.460Z,100100.21
2023-01-29T05:04:33.128Z,100097.95
2023-01-29T05:07:00.886Z,100097.38
2023-01-29T05:09:28.556Z,100093.69
2023-01-29T05:11:56.314Z,100088.40
2023-01-29T05:14:24.079Z,100087.58
2023-01-29T05:16:51.740Z,100090.74
2023-01-29T05:19:19.502Z,100091.16
2023-01-29T05:21:47.167Z,100086.83
2023-01-29T05:24:14.912Z,100091.98
2023-01-29T05:27:01.228Z,100097.00
2023-01-29T05:29:28.888Z,100096.36
2023-01-29T05:31:56.606Z,100094.89
2023-01-29T05:34:24.418Z,100100.93
2023-01-29T05:36:52.189Z,100106.07
2023-01-29T05:39:19.948Z,100112.92
2023-01-29T05:41:47.710Z,100116.60
2023-01-29T05:44:15.592Z,100119.55
2023-01-29T05:46:44.308Z,100123.21
2023-01-29T05:49:12.123Z,100126.85
2023-01-29T05:51:39.888Z,100131.20
2023-01-29T05:54:07.655Z,100140.55
2023-01-29T05:56:35.414Z,100137.55
2023-01-29T05:59:03.294Z,100138.80
2023-01-29T06:01:31.040Z,100143.06
2023-01-29T06:03:58.911Z,100147.23
2023-01-29T06:06:26.573Z,100149.45
2023-01-29T06:08:54.336Z,100150.89
2023-01-29T06:11:22.099Z,100153.69
2023-01-29T06:13:49.865Z,100156.27
2023-01-29T06:16:17.708Z,100154.31
2023-01-29T06:18:45.598Z,100160.39
2023-01-29T06:21:13.365Z,100161.79
2023-01-29T06:23:41.124Z,100165.26
2023-01-29T06:26:08.891Z,100164.95
2023-01-29T06:28:36.654Z,100162.73
2023-01-29T06:31:23.771Z,100161.98
2023-01-29T06:33:52.049Z,100161.73
2023-01-29T06:36:19.816Z,100156.40
2023-01-29T06:38:47.702Z,100160.02
2023-01-29T06:41:15.543Z,100162.41
2023-01-29T06:43:43.303Z,100172.20
2023-01-29T06:46:10.968Z,100178.48
2023-01-29T06:48:38.737Z,100178.91
2023-01-29T06:51:06.497Z,100174.19
2023-01-29T06:53:34.259Z,100176.20
2023-01-29T06:56:02.025Z,100176.48
2023-01-29T06:58:29.825Z,100175.00
2023-01-29T07:00:57.901Z,100176.48
2023-01-29T07:03:25.724Z,100170.52
2023-01-29T07:05:53.591Z,100166.25
2023-01-29T07:08:22.991Z,100165.67
2023-01-29T07:10:50.962Z,100163.86
2023-01-29T07:13:18.724Z,100164.48
2023-01-29T07:15:46.487Z,100167.08
2023-01-29T07:18:14.267Z,100167.95
2023-01-29T07:20:42.119Z,100170.00
2023-01-29T07:23:09.885Z,100170.96
2023-01-29T07:25:37.646Z,100180.50
2023-01-29T07:28:05.309Z,100176.98
2023-01-29T07:30:33.031Z,100181.05
2023-01-29T07:33:00.736Z,100181.63
2023-01-29T07:35:28.496Z,100187.25
2023-01-29T07:37:56.266Z,100189.71
2023-01-29T07:40:24.026Z,100189.48
2023-01-29T07:42:51.789Z,100191.34
2023-01-29T07:45:19.552Z,100195.35
2023-01-29T07:47:47.225Z,100199.55
2023-01-29T07:50:15.373Z,100199.95
2023-01-29T07:52:43.358Z,100200.73
2023-01-29T07:55:11.018Z,100199.30
2023-01-29T07:57:38.796Z,100206.77
2023-01-29T08:00:06.545Z,100212.33
2023-01-29T08:02:34.391Z,100216.98
2023-01-29T08:05:02.175Z,100219.30
2023-01-29T08:07:29.939Z,100220.04
2023-01-29T08:09:57.708Z,100223.54
2023-01-29T08:12:25.467Z,100221.20
2023-01-29T08:14:53.232Z,100226.02
2023-01-29T08:17:21.000Z,100230.77
2023-01-29T08:19:48.761Z,100228.20
2023-01-29T08:22:16.840Z,100226.58
2023-01-29T08:24:53.716Z,100233.30
2023-01-29T08:27:27.927Z,100239.95
2023-01-29T08:29:55.685Z,100248.81
2023-01-29T08:32:23.363Z,100247.98
2023-01-29T08:34:51.130Z,100245.79
2023-01-29T08:37:18.887Z,100237.83
2023-01-29T08:39:46.657Z,100241.73
2023-01-29T08:42:14.403Z,100244.36
2023-01-29T08:44:42.169Z,100247.84
2023-01-29T08:47:09.828Z,100240.77
2023-01-29T08:49:37.598Z,100236.96
2023-01-29T08:52:05.254Z,100231.29
2023-01-29T08:54:33.017Z,100221.61
2023-01-29T08:57:00.782Z,100221.63
2023-01-29T08:59:28.445Z,100226.42
2023-01-29T09:01:56.208Z,100227.21
2023-01-29T09:04:23.868Z,100227.63
2023-01-29T09:06:51.632Z,100232.65
2023-01-29T09:09:19.294Z,100230.04
2023-01-29T09:11:47.057Z,100219.91
2023-01-29T09:14:14.926Z,100215.64
2023-01-29T09:16:42.812Z,100217.39
2023-01-29T09:19:10.556Z,100208.23
2023-01-29T09:21:38.224Z,100200.34
2023-01-29T09:24:05.979Z,100193.44
2023-01-29T09:26:33.672Z,100196.11
2023-01-29T09:29:01.510Z,100191.91
2023-01-29T09:31:29.344Z,100199.25
2023-01-29T09:33:57.239Z,100196.98
2023-01-29T09:36:25.010Z,100189.31
2023-01-29T09:38:52.767Z,100187.43
2023-01-29T09:41:20.427Z,100184.21
2023-01-29T09:43:48.500Z,100187.30
2023-01-29T09:46:16.312Z,100182.17
2023-01-29T09:48:44.133Z,100183.38
2023-01-29T09:51:11.895Z,100188.66
2023-01-29T09:53:39.711Z,100185.34
2023-01-29T09:56:07.421Z,100183.02
2023-01-29T09:58:35.915Z,100168.79
2023-01-29T10:01:03.720Z,100160.27
2023-01-29T10:03:31.430Z,100160.21
2023-01-29T10:05:59.092Z,100156.30
2023-01-29T10:08:26.964Z,100155.70
2023-01-29T10:10:55.334Z,100152.02
2023-01-29T10:13:23.102Z,100142.91
2023-01-29T10:15:50.968Z,100137.73
2023-01-29T10:18:18.749Z,100133.03
2023-01-29T10:20:46.502Z,100135.52
2023-01-29T10:23:14.260Z,100135.01
2023-01-29T10:25:42.037Z,100140.42
2023-01-29T10:28:09.787Z,100140.48
2023-01-29T10:30:37.565Z,100134.17
2023-01-29T10:33:05.315Z,100132.17
2023-01-29T10:35:33.076Z,100120.48
2023-01-29T10:38:00.840Z,100111.41
2023-01-29T10:40:28.502Z,100109.89
2023-01-29T10:42:57.494Z,100101.48
2023-01-29T10:45:25.155Z,100093.50
2023-01-29T10:47:53.116Z,100088.42
2023-01-29T10:50:20.995Z,100091.40
2023-01-29T10:52:50.110Z,100086.46
2023-01-29T10:55:18.120Z,100081.37
2023-01-29T10:57:46.126Z,100079.90
2023-01-29T11:00:13.903Z,100071.40
2023-01-29T11:02:41.742Z,100063.61
2023-01-29T11:05:10.313Z,100066.95
2023-01-29T11:07:38.122Z,100058.23
2023-01-29T11:10:05.870Z,100045.02
2023-01-29T11:12:33.946Z,100041.58
2023-01-29T11:15:01.702Z,100033.48
2023-01-29T11:17:29.479Z,100027.11
2023-01-29T11:19:57.192Z,100016.45
2023-01-29T11:22:24.993Z,100013.23
2023-01-29T11:24:52.779Z,100018.98
2023-01-29T11:27:20.521Z,100018.07
2023-01-29T11:29:48.409Z,100007.91
2023-01-29T11:32:16.151Z,100005.65
2023-01-29T11:34:43.918Z,100000.86
2023-01-29T11:37:11.684Z,100008.23
2023-01-29T11:39:39.442Z,100000.64
2023-01-29T11:42:13.502Z,99996.89
2023-01-29T11:44:41.829Z,99995.33
2023-01-29T11:47:09.495Z,99991.23
2023-01-29T11:49:37.667Z,99981.73
2023-01-29T11:52:05.337Z,99991.28
2023-01-29T11:54:33.603Z,99983.65
2023-01-29T11:57:01.572Z,99981.52
2023-01-29T11:59:29.244Z,99976.72
2023-01-29T12:01:57.210Z,99972.88
2023-01-29T12:04:24.965Z,99966.16
2023-01-29T12:06:53.352Z,99965.75
2023-01-29T12:09:21.113Z,99966.48
2023-01-29T12:11:48.872Z,99970.40
2023-01-29T12:14:16.636Z,99968.96
2023-01-29T12:16:44.403Z,99966.26
2023-01-29T12:19:12.169Z,99962.75
2023-01-29T12:21:40.132Z,99960.61
2023-01-29T12:24:07.910Z,99954.45
2023-01-29T12:26:35.713Z,99953.09
2023-01-29T12:29:03.526Z,99949.42
2023-01-29T12:31:31.201Z,99949.97
2023-01-29T12:33:58.954Z,99947.54
2023-01-29T12:36:26.717Z,99947.85
2023-01-29T12:38:54.480Z,99944.70
2023-01-29T12:41:22.344Z,99944.23
2023-01-29T12:43:50.111Z,99939.39
2023-01-29T12:46:17.771Z,99936.11
2023-01-29T12:48:45.537Z,99939.86
2023-01-29T12:51:13.301Z,99940.38
2023-01-29T12:53:41.062Z,99943.27
2023-01-29T12:56:08.724Z,99938.83
2023-01-29T12:58:36.805Z,99940.26
2023-01-29T13:01:04.612Z,99944.52
2023-01-29T13:03:32.701Z,99945.08
2023-01-29T13:06:00.497Z,99947.11
2023-01-29T13:08:28.260Z,99947.55
2023-01-29T13:10:55.926Z,99944.45
2023-01-29T13:13:23.685Z,99943.99
2023-01-29T13:15:51.456Z,99943.55
2023-01-29T13:18:19.213Z,99941.68
2023-01-29T13:20:46.874Z,99943.96
2023-01-29T13:23:14.537Z,99934.25
2023-01-29T13:25:42.305Z,99929.29
2023-01-29T13:28:09.962Z,99921.33
2023-01-29T13:30:37.656Z,99925.36
2023-01-29T13:33:12.103Z,99920.02
2023-01-29T13:35:40.528Z,99917.98
2023-01-29T13:38:08.185Z,99918.33
2023-01-29T13:40:36.050Z,99922.46
2023-01-29T13:43:04.225Z,99921.48
2023-01-29T13:45:31.992Z,99916.52
2023-01-29T13:47:59.621Z,99913.65
2023-01-29T13:50:27.618Z,99918.51
2023-01-29T13:52:55.280Z,99915.77
2023-01-29T13:55:24.181Z,99916.91
2023-01-29T13:57:54.705Z,99918.91
2023-01-29T14:00:31.072Z,99915.94
2023-01-29T14:02:58.829Z,99918.92
2023-01-29T14:05:26.703Z,99914.39
2023-01-29T14:07:54.459Z,99912.39
2023-01-29T14:10:22.224Z,99912.61
2023-01-29T14:12:49.988Z,99917.41
2023-01-29T14:15:20.989Z,99914.61
2023-01-29T14:17:49.207Z,99908.41
2023-01-29T14:20:16.969Z,99912.48
2023-01-29T14:22:44.726Z,99910.70
2023-01-29T14:25:12.389Z,99911.64
2023-01-29T14:27:40.161Z,99906.28
2023-01-29T14:30:07.931Z,99903.91
2023-01-29T14:32:35.784Z,99901.21
2023-01-29T14:35:03.445Z,99904.19
2023-01-29T14:37:31.253Z,99908.61
2023-01-29T14:39:58.980Z,99904.18
2023-01-29T14:42:26.634Z,99897.46
2023-01-29T14:44:54.295Z,99895.44
2023-01-29T14:47:22.062Z,99897.59
2023-01-29T14:49:49.825Z,99900.27
2023-01-29T14:52:17.799Z,99898.04
2023-01-29T14:54:45.461Z,99894.87
2023-01-29T14:57:13.220Z,99892.98
2023-01-29T14:59:40.881Z,99895.34
2023-01-29T15:02:08.541Z,99892.02
2023-01-29T15:04:36.305Z,99887.64
2023-01-29T15:07:06.736Z,99882.32
2023-01-29T15:09:36.661Z,99876.92
2023-01-29T15:12:04.815Z,99879.56
2023-01-29T15:14:32.614Z,99875.08
2023-01-29T15:17:00.358Z,99870.54
2023-01-29T15:19:28.111Z,99872.67
2023-01-29T15:21:55.874Z,99865.06
2023-01-29T15:24:23.741Z,99867.34
2023-01-29T15:26:51.529Z,99870.60
2023-01-29T15:29:19.370Z,99867.63
2023-01-29T15:31:48.005Z,99873.29
2023-01-29T15:34:15.921Z,99870.41
2023-01-29T15:36:43.686Z,99868.48
2023-01-29T15:39:11.350Z,99868.91
2023-01-29T15:41:39.114Z,99859.02
2023-01-29T15:44:06.774Z,99858.65
2023-01-29T15:46:34.536Z,99859.77
2023-01-29T15:49:02.301Z,99852.83
2023-01-29T15:51:29.971Z,99855.05
2023-01-29T15:53:57.725Z,99853.61
2023-01-29T15:56:25.387Z,99856.16
2023-01-29T15:58:53.158Z,99857.02
2023-01-29T16:01:20.859Z,99861.77
2023-01-29T16:03:48.575Z,99864.52
2023-01-29T16:06:16.545Z,99865.15
2023-01-29T16:08:44.206Z,99863.05
2023-01-29T16:11:11.866Z,99867.98
2023-01-29T16:13:39.544Z,99866.61
2023-01-29T16:16:08.689Z,99864.23
2023-01-29T16:18:36.923Z,99859.47
2023-01-29T16:21:06.711Z,99855.80
2023-01-29T16:23:35.088Z,99854.90
2023-01-29T16:26:02.853Z,99861.73
2023-01-29T16:28:30.521Z,99860.37
2023-01-29T16:30:58.570Z,99851.69
2023-01-29T16:33:26.660Z,99852.94
2023-01-29T16:35:54.425Z,99855.58
2023-01-29T16:38:22.086Z,99859.52
2023-01-29T16:40:49.846Z,99860.89
2023-01-29T16:43:17.513Z,99855.34
2023-01-29T16:45:45.377Z,99852.42
2023-01-29T16:48:13.037Z,99853.40
2023-01-29T16:50:54.375Z,99855.80
2023-01-29T16:53:24.744Z,99855.66
2023-01-29T16:55:52.548Z,99848.46
2023-01-29T16:58:20.389Z,99857.98
2023-01-29T17:00:48.078Z,99861.25
2023-01-29T17:03:15.798Z,99858.12
2023-01-29T17:05:43.563Z,99854.81
2023-01-29T17:08:11.225Z,99862.52
2023-01-29T17:10:38.987Z,99858.75
2023-01-29T17:13:06.872Z,99859.05
2023-01-29T17:15:34.620Z,99854.30
2023-01-29T17:18:02.381Z,99849.02
2023-01-29T17:20:30.042Z,99850.73
2023-01-29T17:22:57.707Z,99849.23
2023-01-29T17:25:25.468Z,99848.11
2023-01-29T17:27:53.137Z,99848.98
2023-01-29T17:30:20.930Z,99844.98
2023-01-29T17:32:48.761Z,99840.06
2023-01-29T17:35:17.574Z,99828.77
2023-01-29T17:37:45.978Z,99817.68
2023-01-29T17:40:13.796Z,99817.77
2023-01-29T17:42:41.659Z,99820.27
2023-01-29T17:45:11.062Z,99816.23
2023-01-29T17:47:38.829Z,99812.83
2023-01-29T17:50:06.594Z,99806.71
2023-01-29T17:52:34.353Z,99804.39
2023-01-29T17:55:02.117Z,99806.83
2023-01-29T17:57:32.581Z,99807.83
2023-01-29T18:00:00.522Z,99802.13
2023-01-29T18:02:28.482Z,99806.88
2023-01-29T18:04:57.687Z,99809.46
2023-01-29T18:07:25.466Z,99810.77
2023-01-29T18:09:53.212Z,99807.34
2023-01-29T18:12:20.869Z,99805.14
2023-01-29T18:14:48.531Z,99803.61
2023-01-29T18:17:22.439Z,99804.41
2023-01-29T18:19:50.142Z,99796.79
2023-01-29T18:22:17.864Z,99795.23
2023-01-29T18:24:45.645Z,99790.46
2023-01-29T18:27:13.389Z,99795.05
2023-01-29T18:29:41.159Z,99802.23
2023-01-29T18:32:08.921Z,99803.13
2023-01-29T18:34:36.683Z,99801.13
2023-01-29T18:37:04.652Z,99800.27
2023-01-29T18:39:32.318Z,99796.03
2023-01-29T18:42:00.022Z,99797.59
2023-01-29T18:44:29.886Z,99792.49
2023-01-29T18:46:57.656Z,99793.30
2023-01-29T18:49:25.416Z,99794.55
2023-01-29T18:51:53.180Z,99794.11
2023-01-29T18:54:21.673Z,99789.95
2023-01-29T18:57:12.875Z,99791.09
2023-01-29T18:59:37.157Z,99793.89
2023-01-29T19:02:05.277Z,99789.91
2023-01-29T19:04:33.097Z,99784.06
2023-01-29T19:07:00.858Z,99784.73
2023-01-29T19:09:28.727Z,99783.27
2023-01-29T19:11:56.498Z,99772.61
2023-01-29T19:14:24.251Z,99768.73
2023-01-29T19:16:51.973Z,99760.63
2023-01-29T19:19:20.399Z,99760.26
2023-01-29T19:21:48.159Z,99757.21
2023-01-29T19:24:16.025Z,99756.23
2023-01-29T19:26:43.736Z,99751.58
2023-01-29T19:29:11.764Z,99742.52
2023-01-29T19:31:39.578Z,99741.66
2023-01-29T19:34:07.395Z,99739.90
2023-01-29T19:36:35.152Z,99745.71
2023-01-29T19:39:02.915Z,99743.98
2023-01-29T19:41:30.786Z,99747.18
2023-01-29T19:43:58.648Z,99747.30
2023-01-29T19:46:26.417Z,99743.05
2023-01-29T19:48:57.145Z,99737.83
2023-01-29T19:51:24.909Z,99733.34
2023-01-29T19:53:52.675Z,99730.64
2023-01-29T19:56:20.648Z,99731.48
2023-01-29T19:58:48.420Z,99734.27
2023-01-29T20:01:16.172Z,99730.39
2023-01-29T20:03:46.696Z,99724.64
2023-01-29T20:06:14.463Z,99723.77
2023-01-29T20:08:42.177Z,99722.73
2023-01-29T20:11:10.095Z,99725.56
2023-01-29T20:13:37.962Z,99725.55
2023-01-29T20:16:05.836Z,99730.87
2023-01-29T20:18:33.692Z,99729.84
2023-01-29T20:21:01.353Z,99727.42
2023-01-29T20:23:37.661Z,99728.86
2023-01-29T20:26:06.104Z,99728.25
2023-01-29T20:28:34.784Z,99723.20
2023-01-29T20:31:03.242Z,99717.94
2023-01-29T20:33:32.770Z,99716.40
2023-01-29T20:36:00.639Z,99715.38
2023-01-29T20:38:31.983Z,99710.14
2023-01-29T20:40:59.853Z,99706.15
2023-01-29T20:43:27.611Z,99705.73
2023-01-29T20:45:55.400Z,99706.42
2023-01-29T20:48:23.558Z,99699.90
2023-01-29T20:50:51.416Z,99701.05
2023-01-29T20:53:19.587Z,99703.00
2023-01-29T20:55:47.969Z,99699.54
2023-01-29T20:58:15.835Z,99702.09
2023-01-29T21:00:43.616Z,99699.83
2023-01-29T21:03:11.361Z,99696.90
2023-01-29T21:05:39.125Z,99693.76
2023-01-29T21:08:06.788Z,99688.30
2023-01-29T21:10:34.550Z,99688.81
2023-01-29T21:13:02.313Z,99685.67
2023-01-29T21:15:30.077Z,99683.30
2023-01-29T21:17:59.788Z,99678.08
2023-01-29T21:20:27.449Z,99675.85
2023-01-29T21:22:55.522Z,99673.56
2023-01-29T21:25:23.698Z,99670.36
2023-01-29T21:27:51.458Z,99672.54
2023-01-29T21:30:19.598Z,99672.46
2023-01-29T21:32:47.701Z,99673.80
2023-01-29T21:35:16.695Z,99673.52
2023-01-29T21:37:44.458Z,99667.35
2023-01-29T21:40:12.127Z,99667.75
2023-01-29T21:42:58.520Z,99663.33
2023-01-29T21:45:26.284Z,99661.95
2023-01-29T21:47:54.048Z,99658.46
2023-01-29T21:50:21.818Z,99657.79
2023-01-29T21:52:49.576Z,99652.16
2023-01-29T21:55:17.442Z,99649.23
2023-01-29T21:57:46.966Z,99643.84
2023-01-29T22:00:14.826Z,99642.56
2023-01-29T22:02:42.940Z,99640.16
2023-01-29T22:05:18.623Z,99636.35
2023-01-29T22:07:47.442Z,99631.20
2023-01-29T22:10:15.838Z,99623.48
2023-01-29T22:12:44.900Z,99614.75
2023-01-29T22:15:12.659Z,99607.94
2023-01-29T22:17:41.786Z,99603.44
2023-01-29T22:20:09.619Z,99599.97
2023-01-29T22:22:37.393Z,99598.05
2023-01-29T22:25:05.189Z,99597.52
2023-01-29T22:27:33.527Z,99589.25
2023-01-29T22:30:01.293Z,99587.89
2023-01-29T22:32:29.091Z,99587.95
2023-01-29T22:34:56.923Z,99584.30
2023-01-29T22:37:24.687Z,99582.63
2023-01-29T22:39:52.452Z,99575.98
2023-01-29T22:42:20.891Z,99575.63
2023-01-29T22:44:48.910Z,99572.18
2023-01-29T22:47:16.663Z,99565.88
2023-01-29T22:49:45.780Z,99556.50
2023-01-29T22:52:13.902Z,99553.91
2023-01-29T22:54:41.599Z,99552.27
2023-01-29T22:57:10.328Z,99548.14
2023-01-29T22:59:38.042Z,99545.38
2023-01-29T23:02:07.955Z,99547.48
2023-01-29T23:04:35.736Z,99545.07
2023-01-29T23:07:03.596Z,99538.84
2023-01-29T23:09:31.280Z,99535.73
2023-01-29T23:11:59.016Z,99533.79
2023-01-29T23:14:26.674Z,99531.71
2023-01-29T23:16:54.440Z,99526.00
2023-01-29T23:19:22.203Z,99520.11
2023-01-29T23:21:49.976Z,99522.35
2023-01-29T23:24:17.729Z,99520.60
2023-01-29T23:27:04.437Z,99517.17
2023-01-29T23:29:32.200Z,99514.19
2023-01-29T23:31:59.892Z,99511.95
2023-01-29T23:34:27.630Z,99506.31
2023-01-29T23:36:55.391Z,99503.21
2023-01-29T23:39:23.154Z,99497.66
2023-01-29T23:41:50.930Z,99489.95
2023-01-29T23:44:18.784Z,99488.17
2023-01-29T23:46:46.481Z,99477.71
2023-01-29T23:49:14.209Z,99477.59
2023-01-29T23:51:41.974Z,99474.20
2023-01-29T23:54:09.639Z,99468.80
2023-01-29T23:56:37.297Z,99466.34
2023-01-29T23:59:05.063Z,99458.57
